createdAt,value
2019-03-12T00:03:34.694Z,99382.25
2019-03-12T00:05:45.495Z,99390.42
2019-03-12T00:07:56.428Z,99394.23
2019-03-12T00:10:48.882Z,99397.30
2019-03-12T00:12:59.714Z,99399.42
2019-03-12T00:15:10.625Z,99402.86
2019-03-12T00:17:21.438Z,99397.66
2019-03-12T00:19:32.243Z,99403.58
2019-03-12T00:21:43.069Z,99405.78
2019-03-12T00:23:53.903Z,99404.98
2019-03-12T00:26:04.688Z,99391.80
2019-03-12T00:28:15.501Z,99400.28
2019-03-12T00:30:26.336Z,99402.34
2019-03-12T00:32:37.174Z,99403.20
2019-03-12T00:34:47.952Z,99402.91
2019-03-12T00:36:58.881Z,99409.34
2019-03-12T00:39:09.685Z,99407.16
2019-03-12T00:41:20.467Z,99410.12
2019-03-12T00:43:31.277Z,99417.86
2019-03-12T00:45:42.101Z,99416.70
2019-03-12T00:47:52.894Z,99418.00
2019-03-12T00:50:45.341Z,99417.21
2019-03-12T00:52:56.227Z,99416.06
2019-03-12T00:55:48.659Z,99415.77
2019-03-12T00:57:59.472Z,99415.81
2019-03-12T01:00:51.932Z,99419.36
2019-03-12T01:03:44.400Z,99427.56
2019-03-12T01:05:55.191Z,99421.27
2019-03-12T01:08:05.986Z,99423.17
2019-03-12T01:10:16.949Z,99422.33
2019-03-12T01:12:27.748Z,99419.44
2019-03-12T01:14:38.544Z,99422.86
2019-03-12T01:16:49.356Z,99425.99
2019-03-12T01:19:00.171Z,99428.48
2019-03-12T01:21:10.965Z,99431.13
2019-03-12T01:23:21.820Z,99431.54
2019-03-12T01:25:32.636Z,99427.80
2019-03-12T01:27:43.433Z,99434.27
2019-03-12T01:29:54.252Z,99435.12
2019-03-12T01:32:05.073Z,99436.44
2019-03-12T01:34:15.868Z,99437.77
2019-03-12T01:36:26.715Z,99432.62
2019-03-12T01:38:37.498Z,99436.52
2019-03-12T01:40:48.291Z,99433.98
2019-03-12T01:42:59.121Z,99434.02
2019-03-12T01:45:29.810Z,99440.89
2019-03-12T01:47:40.693Z,99439.17
2019-03-12T01:49:51.515Z,99439.20
2019-03-12T01:52:02.418Z,99441.77
2019-03-12T01:54:13.198Z,99445.63
2019-03-12T01:56:24.047Z,99443.50
2019-03-12T01:58:34.839Z,99442.22
2019-03-12T02:00:45.748Z,99446.48
2019-03-12T02:02:56.548Z,99441.33
2019-03-12T02:05:07.344Z,99439.35
2019-03-12T02:07:18.162Z,99441.48
2019-03-12T02:12:01.557Z,99446.11
2019-03-12T02:14:32.294Z,99446.70
2019-03-12T02:16:43.134Z,99449.67
2019-03-12T02:18:53.921Z,99448.86
2019-03-12T02:21:04.754Z,99439.39
2019-03-12T02:23:15.556Z,99441.55
2019-03-12T02:25:26.506Z,99444.45
2019-03-12T02:27:37.324Z,99447.91
2019-03-12T02:29:48.122Z,99446.63
2019-03-12T02:31:58.967Z,99447.43
2019-03-12T02:34:09.773Z,99444.38
2019-03-12T02:36:40.438Z,99447.77
2019-03-12T02:38:51.253Z,99445.59
2019-03-12T02:41:02.136Z,99447.65
2019-03-12T02:43:12.962Z,99448.09
2019-03-12T02:45:23.766Z,99443.39
2019-03-12T02:47:34.567Z,99441.27
2019-03-12T02:49:45.399Z,99439.94
2019-03-12T02:51:56.198Z,99431.34
2019-03-12T02:54:07.028Z,99436.92
2019-03-12T02:56:17.923Z,99433.06
2019-03-12T02:58:28.792Z,99430.61
2019-03-12T03:00:39.732Z,99434.43
2019-03-12T03:02:50.605Z,99436.16
2019-03-12T03:05:01.413Z,99432.70
2019-03-12T03:07:32.079Z,99433.98
2019-03-12T03:09:42.920Z,99436.08
2019-03-12T03:11:53.722Z,99433.58
2019-03-12T03:14:04.529Z,99431.86
2019-03-12T03:16:15.321Z,99439.61
2019-03-12T03:18:26.148Z,99438.32
2019-03-12T03:20:36.985Z,99440.05
2019-03-12T03:22:47.758Z,99444.34
2019-03-12T03:24:58.569Z,99450.30
2019-03-12T03:27:09.373Z,99447.69
2019-03-12T03:29:20.181Z,99451.14
2019-03-12T03:31:31.022Z,99455.98
2019-03-12T03:33:41.811Z,99456.50
2019-03-12T03:35:52.590Z,99452.23
2019-03-12T03:38:03.396Z,99449.30
2019-03-12T03:40:34.084Z,99449.73
2019-03-12T03:42:45.007Z,99450.14
2019-03-12T03:44:55.804Z,99448.05
2019-03-12T03:47:06.611Z,99445.55
2019-03-12T03:49:17.442Z,99438.72
2019-03-12T03:51:28.222Z,99430.13
2019-03-12T03:53:39.010Z,99426.72
2019-03-12T03:55:49.845Z,99434.91
2019-03-12T03:58:00.638Z,99425.95
2019-03-12T04:00:31.340Z,99432.40
2019-03-12T04:02:42.142Z,99432.44
2019-03-12T04:04:52.971Z,99438.05
2019-03-12T04:07:03.759Z,99439.80
2019-03-12T04:09:14.558Z,99437.67
2019-03-12T04:11:25.397Z,99443.75
2019-03-12T04:13:36.206Z,99440.88
2019-03-12T04:18:05.857Z,99435.95
2019-03-12T04:20:58.310Z,99444.16
2019-03-12T04:23:09.116Z,99445.53
2019-03-12T04:25:19.919Z,99438.67
2019-03-12T04:27:30.751Z,99441.22
2019-03-12T04:29:41.582Z,99440.34
2019-03-12T04:31:52.363Z,99436.50
2019-03-12T04:34:23.027Z,99433.48
2019-03-12T04:36:33.901Z,99430.48
2019-03-12T04:38:44.731Z,99425.80
2019-03-12T04:40:55.535Z,99432.29
2019-03-12T04:43:06.353Z,99424.18
2019-03-12T04:45:17.248Z,99421.28
2019-03-12T04:47:28.072Z,99425.11
2019-03-12T04:49:38.865Z,99422.92
2019-03-12T04:51:49.676Z,99421.17
2019-03-12T04:54:00.464Z,99420.25
2019-03-12T04:56:11.269Z,99415.52
2019-03-12T04:58:22.075Z,99411.67
2019-03-12T05:00:32.858Z,99414.24
2019-03-12T05:02:43.681Z,99412.11
2019-03-12T05:04:54.586Z,99413.77
2019-03-12T05:07:05.410Z,99411.20
2019-03-12T05:09:16.196Z,99413.77
2019-03-12T05:11:27.072Z,99411.20
2019-03-12T05:13:37.901Z,99408.67
2019-03-12T05:15:48.689Z,99410.80
2019-03-12T05:17:59.516Z,99409.02
2019-03-12T05:20:51.980Z,99412.05
2019-03-12T05:23:02.811Z,99407.36
2019-03-12T05:25:55.231Z,99405.31
2019-03-12T05:28:06.039Z,99401.92
2019-03-12T05:30:58.477Z,99395.48
2019-03-12T05:33:09.315Z,99396.80
2019-03-12T05:35:20.112Z,99397.70
2019-03-12T05:37:31.004Z,99395.57
2019-03-12T05:39:41.811Z,99387.88
2019-03-12T05:41:52.700Z,99388.34
2019-03-12T05:46:42.695Z,99385.80
2019-03-12T05:48:53.493Z,99382.83
2019-03-12T05:51:04.297Z,99387.16
2019-03-12T05:53:15.322Z,99381.23
2019-03-12T05:55:26.117Z,99382.58
2019-03-12T05:57:36.906Z,99382.16
2019-03-12T05:59:47.723Z,99373.65
2019-03-12T06:01:58.527Z,99376.59
2019-03-12T06:04:09.351Z,99376.13
2019-03-12T06:06:20.158Z,99372.75
2019-03-12T06:08:31.051Z,99372.75
2019-03-12T06:10:41.909Z,99376.23
2019-03-12T06:12:52.698Z,99365.52
2019-03-12T06:15:45.170Z,99368.98
2019-03-12T06:17:55.958Z,99372.41
2019-03-12T06:20:48.424Z,99367.64
2019-03-12T06:22:59.286Z,99358.70
2019-03-12T06:25:10.233Z,99355.72
2019-03-12T06:27:21.032Z,99354.44
2019-03-12T06:29:31.824Z,99350.92
2019-03-12T06:32:02.511Z,99350.02
2019-03-12T06:39:46.274Z,99350.34
2019-03-12T06:44:35.533Z,99348.16
2019-03-12T06:47:06.189Z,99348.50
2019-03-12T06:54:31.174Z,99350.00
2019-03-12T06:59:24.202Z,99345.14
2019-03-12T07:04:17.365Z,99342.66
2019-03-12T07:06:48.066Z,99335.17
2019-03-12T07:09:18.726Z,99330.44
2019-03-12T07:11:49.443Z,99330.16
2019-03-12T07:14:22.503Z,99324.63
2019-03-12T07:16:52.806Z,99324.09
2019-03-12T07:19:23.494Z,99314.02
2019-03-12T07:21:54.201Z,99300.70
2019-03-12T07:36:12.704Z,99276.28
2019-03-12T07:41:02.228Z,99277.69
2019-03-12T07:43:32.939Z,99283.30
2019-03-12T07:46:03.613Z,99275.59
2019-03-12T07:48:34.304Z,99280.70
2019-03-12T07:51:04.981Z,99277.02
2019-03-12T07:53:35.652Z,99273.99
2019-03-12T07:58:38.679Z,99268.84
2019-03-12T08:01:09.344Z,99264.34
2019-03-12T08:08:30.758Z,99257.22
2019-03-12T08:11:01.479Z,99241.91
2019-03-12T08:13:32.163Z,99234.40
2019-03-12T08:16:02.906Z,99230.28
2019-03-12T08:18:35.572Z,99220.67
2019-03-12T08:21:06.162Z,99210.12
2019-03-12T08:23:36.927Z,99208.98
2019-03-12T08:26:07.617Z,99207.47
2019-03-12T08:28:38.286Z,99207.38
2019-03-12T08:31:08.979Z,99203.40
2019-03-12T08:33:49.984Z,99201.77
2019-03-12T08:36:12.236Z,99207.34
2019-03-12T08:41:15.274Z,99189.31
2019-03-12T08:43:45.945Z,99185.42
2019-03-12T08:50:57.978Z,99184.58
2019-03-12T08:53:28.641Z,99178.08
2019-03-12T08:55:59.326Z,99171.08
2019-03-12T09:01:02.386Z,99166.84
2019-03-12T09:03:33.052Z,99162.06
2019-03-12T09:06:03.767Z,99155.73
2019-03-12T09:11:06.805Z,99145.84
2019-03-12T09:13:37.479Z,99153.56
2019-03-12T09:16:08.168Z,99150.34
2019-03-12T09:18:38.955Z,99146.92
2019-03-12T09:21:09.652Z,99142.61
2019-03-12T09:23:40.435Z,99142.53
2019-03-12T09:26:11.131Z,99130.54
2019-03-12T09:28:41.823Z,99131.52
2019-03-12T09:31:12.499Z,99135.13
2019-03-12T09:36:02.017Z,99117.20
2019-03-12T09:40:51.715Z,99114.12
2019-03-12T09:43:22.524Z,99104.48
2019-03-12T09:45:53.307Z,99101.15
2019-03-12T09:55:45.623Z,99086.26
2019-03-12T09:58:16.327Z,99077.88
2019-03-12T10:00:47.106Z,99068.07
2019-03-12T10:03:17.797Z,99071.44
2019-03-12T10:05:48.469Z,99064.41
2019-03-12T10:08:19.161Z,99053.67
2019-03-12T10:13:22.235Z,99050.95
2019-03-12T10:15:52.914Z,99037.18
2019-03-12T10:18:23.616Z,99030.12
2019-03-12T10:20:54.286Z,99024.94
2019-03-12T10:25:57.303Z,99022.54
2019-03-12T10:28:27.999Z,99008.19
2019-03-12T10:30:58.687Z,99006.54
2019-03-12T10:33:29.419Z,98997.89
2019-03-12T10:36:00.167Z,98993.67
2019-03-12T10:38:52.673Z,98983.98
2019-03-12T10:43:35.929Z,98979.03
2019-03-12T10:46:06.621Z,98967.41
2019-03-12T10:48:17.428Z,98961.70
2019-03-12T10:50:35.532Z,98964.78
2019-03-12T10:52:46.344Z,98965.38
2019-03-12T10:54:57.180Z,98957.02
2019-03-12T10:57:08.000Z,98945.14
2019-03-12T10:59:18.802Z,98948.55
2019-03-12T11:01:29.632Z,98935.83
2019-03-12T11:03:40.459Z,98937.83
2019-03-12T11:05:51.271Z,98937.13
2019-03-12T11:08:02.062Z,98929.72
2019-03-12T11:10:32.756Z,98928.34
2019-03-12T11:12:43.583Z,98919.43
2019-03-12T11:14:54.387Z,98917.21
2019-03-12T11:17:05.296Z,98917.86
2019-03-12T11:19:16.091Z,98907.49
2019-03-12T11:21:26.919Z,98906.91
2019-03-12T11:23:37.747Z,98897.79
2019-03-12T11:25:48.576Z,98882.59
2019-03-12T11:27:59.417Z,98873.24
2019-03-12T11:30:30.107Z,98876.65
2019-03-12T11:32:40.896Z,98877.95
2019-03-12T11:34:51.693Z,98871.55
2019-03-12T11:37:02.881Z,98865.73
2019-03-12T11:39:15.352Z,98860.09
2019-03-12T11:41:26.254Z,98850.68
2019-03-12T11:43:37.036Z,98850.67
2019-03-12T11:45:47.829Z,98841.76
2019-03-12T11:47:58.648Z,98848.41
2019-03-12T11:50:51.105Z,98842.73
2019-03-12T11:53:02.152Z,98841.83
2019-03-12T11:55:56.270Z,98831.88
2019-03-12T11:58:07.119Z,98833.69
2019-03-12T12:00:59.611Z,98826.45
2019-03-12T12:03:10.583Z,98820.00
2019-03-12T12:05:21.485Z,98824.76
2019-03-12T12:07:32.417Z,98813.54
2019-03-12T12:09:43.206Z,98800.81
2019-03-12T12:11:54.030Z,98802.13
2019-03-12T12:14:04.853Z,98794.31
2019-03-12T12:16:15.755Z,98790.55
2019-03-12T12:18:26.686Z,98777.21
2019-03-12T12:20:37.478Z,98765.38
2019-03-12T12:22:48.294Z,98760.57
2019-03-12T12:24:59.121Z,98751.16
2019-03-12T12:27:09.926Z,98743.25
2019-03-12T12:29:20.769Z,98743.28
2019-03-12T12:31:31.667Z,98733.88
2019-03-12T12:33:42.497Z,98730.64
2019-03-12T12:35:53.342Z,98719.34
2019-03-12T12:38:04.377Z,98710.77
2019-03-12T12:40:56.862Z,98697.72
2019-03-12T12:43:07.665Z,98686.32
2019-03-12T12:45:38.764Z,98679.88
2019-03-12T12:47:49.556Z,98670.41
2019-03-12T12:50:00.527Z,98664.96
2019-03-12T12:52:11.323Z,98649.94
2019-03-12T12:54:22.314Z,98644.14
2019-03-12T12:56:33.116Z,98648.25
2019-03-12T12:58:43.958Z,98630.38
2019-03-12T13:00:54.799Z,98628.44
2019-03-12T13:03:05.679Z,98629.28
2019-03-12T13:05:16.504Z,98621.34
2019-03-12T13:07:27.313Z,98617.55
2019-03-12T13:09:38.145Z,98612.63
2019-03-12T13:11:49.065Z,98603.92
2019-03-12T13:13:59.868Z,98602.50
2019-03-12T13:16:10.698Z,98600.36
2019-03-12T13:18:21.605Z,98587.90
2019-03-12T13:20:32.442Z,98581.40
2019-03-12T13:22:43.336Z,98577.10
2019-03-12T13:24:54.136Z,98576.33
2019-03-12T13:27:04.949Z,98560.55
2019-03-12T13:29:15.817Z,98561.66
2019-03-12T13:31:26.637Z,98554.98
2019-03-12T13:33:37.546Z,98550.31
2019-03-12T13:35:49.577Z,98554.40
2019-03-12T13:38:01.041Z,98550.13
2019-03-12T13:40:53.594Z,98536.64
2019-03-12T13:43:04.525Z,98534.22
2019-03-12T13:45:57.063Z,98531.17
2019-03-12T13:48:07.930Z,98532.08
2019-03-12T13:50:18.774Z,98514.03
2019-03-12T13:52:29.624Z,98515.28
2019-03-12T13:54:40.626Z,98505.62
2019-03-12T13:56:51.513Z,98493.91
2019-03-12T13:59:02.536Z,98490.38
2019-03-12T14:01:13.469Z,98483.34
2019-03-12T14:03:24.259Z,98478.67
2019-03-12T14:05:35.080Z,98482.09
2019-03-12T14:07:45.975Z,98472.72
2019-03-12T14:09:56.786Z,98474.75
2019-03-12T14:12:07.727Z,98466.49
2019-03-12T14:14:18.736Z,98460.11
2019-03-12T14:16:29.534Z,98451.38
2019-03-12T14:18:40.473Z,98440.11
2019-03-12T14:21:32.959Z,98432.20
2019-03-12T14:24:03.663Z,98433.50
2019-03-12T14:26:14.459Z,98423.74
2019-03-12T14:28:25.494Z,98416.30
2019-03-12T14:30:36.411Z,98407.77
2019-03-12T14:32:47.212Z,98399.97
2019-03-12T14:34:58.232Z,98399.94
2019-03-12T14:37:09.157Z,98394.34
2019-03-12T14:39:20.054Z,98386.00
2019-03-12T14:41:31.087Z,98382.38
2019-03-12T14:43:41.904Z,98370.75
2019-03-12T14:45:52.911Z,98365.38
2019-03-12T14:48:03.815Z,98356.92
2019-03-12T14:50:56.301Z,98351.65
2019-03-12T14:53:48.759Z,98345.88
2019-03-12T14:55:59.594Z,98344.39
2019-03-12T14:58:10.674Z,98327.94
2019-03-12T15:01:03.120Z,98324.05
2019-03-12T15:03:14.050Z,98313.56
2019-03-12T15:05:24.953Z,98308.81
2019-03-12T15:07:35.795Z,98304.54
2019-03-12T15:09:46.598Z,98288.28
2019-03-12T15:11:57.410Z,98288.65
2019-03-12T15:14:08.255Z,98278.27
2019-03-12T15:16:19.048Z,98270.63
2019-03-12T15:18:29.889Z,98259.67
2019-03-12T15:20:40.792Z,98256.24
2019-03-12T15:22:51.560Z,98256.51
2019-03-12T15:25:44.006Z,98247.22
2019-03-12T15:27:54.801Z,98232.27
2019-03-12T15:30:26.080Z,98220.14
2019-03-12T15:32:36.885Z,98225.27
2019-03-12T15:34:47.707Z,98209.52
2019-03-12T15:36:58.518Z,98217.40
2019-03-12T15:39:09.653Z,98207.36
2019-03-12T15:41:20.495Z,98205.81
2019-03-12T15:43:31.297Z,98200.69
2019-03-12T15:45:42.215Z,98197.20
2019-03-12T15:47:53.018Z,98191.08
2019-03-12T15:50:45.466Z,98185.69
2019-03-12T15:52:56.302Z,98181.97
2019-03-12T15:55:07.505Z,98174.46
2019-03-12T15:57:18.350Z,98164.13
2019-03-12T15:59:29.231Z,98161.17
2019-03-12T16:01:40.040Z,98149.66
2019-03-12T16:03:50.946Z,98137.43
2019-03-12T16:06:01.836Z,98140.58
2019-03-12T16:08:12.741Z,98131.86
2019-03-12T16:10:23.614Z,98129.01
2019-03-12T16:12:34.470Z,98129.26
2019-03-12T16:14:45.276Z,98115.27
2019-03-12T16:16:56.105Z,98107.94
2019-03-12T16:19:06.912Z,98111.20
2019-03-12T16:21:17.767Z,98112.86
2019-03-12T16:23:28.567Z,98097.30
2019-03-12T16:25:39.370Z,98094.15
2019-03-12T16:27:50.195Z,98086.19
2019-03-12T16:30:01.117Z,98083.59
2019-03-12T16:32:11.928Z,98085.61
2019-03-12T16:34:22.784Z,98083.84
2019-03-12T16:36:33.694Z,98081.55
2019-03-12T16:38:44.519Z,98077.18
2019-03-12T16:40:55.322Z,98073.11
2019-03-12T16:43:06.280Z,98064.96
2019-03-12T16:45:58.740Z,98051.59
2019-03-12T16:48:09.658Z,98051.41
2019-03-12T16:50:20.503Z,98046.41
2019-03-12T16:52:31.417Z,98040.98
2019-03-12T16:54:42.227Z,98034.38
2019-03-12T16:56:53.048Z,98034.38
2019-03-12T16:59:03.875Z,98028.83
2019-03-12T17:01:14.709Z,98026.78
2019-03-12T17:03:25.603Z,98013.16
2019-03-12T17:05:36.427Z,98015.48
2019-03-12T17:07:47.265Z,98007.98
2019-03-12T17:09:58.086Z,97996.41
2019-03-12T17:12:08.944Z,97984.42
2019-03-12T17:14:19.864Z,97982.48
2019-03-12T17:16:30.672Z,97985.07
2019-03-12T17:18:41.594Z,97977.83
2019-03-12T17:20:52.409Z,97980.06
2019-03-12T17:23:03.334Z,97969.33
2019-03-12T17:25:14.164Z,97964.76
2019-03-12T17:27:24.995Z,97950.79
2019-03-12T17:29:35.833Z,97939.57
2019-03-12T17:31:46.632Z,97937.83
2019-03-12T17:33:57.451Z,97935.64
2019-03-12T17:36:08.413Z,97927.95
2019-03-12T17:38:19.334Z,97929.21
2019-03-12T17:40:30.154Z,97927.75
2019-03-12T17:42:40.959Z,97918.79
2019-03-12T17:45:11.692Z,97920.54
2019-03-12T17:47:22.513Z,97925.39
2019-03-12T17:49:33.364Z,97919.30
2019-03-12T17:51:44.212Z,97917.99
2019-03-12T17:53:54.993Z,97914.39
2019-03-12T17:56:05.949Z,97906.91
2019-03-12T17:58:16.787Z,97897.37
2019-03-12T18:00:47.483Z,97888.48
2019-03-12T18:02:58.290Z,97888.95
2019-03-12T18:05:50.791Z,97882.66
2019-03-12T18:08:01.612Z,97872.00
2019-03-12T18:10:32.350Z,97860.16
2019-03-12T18:12:43.205Z,97855.16
2019-03-12T18:14:54.008Z,97848.61
2019-03-12T18:17:04.836Z,97841.66
2019-03-12T18:19:15.679Z,97833.42
2019-03-12T18:21:26.484Z,97832.41
2019-03-12T18:23:37.319Z,97824.53
2019-03-12T18:26:29.768Z,97825.29
2019-03-12T18:28:40.615Z,97822.41
2019-03-12T18:30:51.436Z,97823.06
2019-03-12T18:33:02.390Z,97824.54
2019-03-12T18:35:13.309Z,97817.52
2019-03-12T18:37:24.127Z,97811.22
2019-03-12T18:39:34.962Z,97814.10
2019-03-12T18:41:45.768Z,97808.81
2019-03-12T18:43:56.621Z,97811.59
2019-03-12T18:46:07.650Z,97812.98
2019-03-12T18:48:18.494Z,97808.45
2019-03-12T18:50:29.336Z,97803.99
2019-03-12T18:52:40.292Z,97809.17
2019-03-12T18:54:51.127Z,97795.86
2019-03-12T18:57:01.939Z,97785.31
2019-03-12T18:59:12.784Z,97789.09
2019-03-12T19:01:23.650Z,97794.20
2019-03-12T19:03:34.489Z,97787.91
2019-03-12T19:05:45.323Z,97775.60
2019-03-12T19:07:56.255Z,97765.52
2019-03-12T19:10:26.969Z,97768.66
2019-03-12T19:12:37.922Z,97761.36
2019-03-12T19:14:48.767Z,97763.36
2019-03-12T19:16:59.574Z,97761.23
2019-03-12T19:19:10.543Z,97757.00
2019-03-12T19:21:21.357Z,97750.16
2019-03-12T19:23:32.186Z,97744.05
2019-03-12T19:26:24.752Z,97737.86
2019-03-12T19:28:35.754Z,97726.38
2019-03-12T19:30:46.841Z,97716.95
2019-03-12T19:33:17.528Z,97717.59
2019-03-12T19:36:10.088Z,97707.29
2019-03-12T19:38:20.904Z,97701.64
2019-03-12T19:41:13.425Z,97712.59
2019-03-12T19:43:24.246Z,97702.58
2019-03-12T19:45:35.153Z,97705.45
2019-03-12T19:47:46.073Z,97705.34
2019-03-12T19:49:57.109Z,97697.92
2019-03-12T19:52:08.021Z,97700.61
2019-03-12T19:54:18.839Z,97690.87
2019-03-12T19:56:29.698Z,97692.34
2019-03-12T19:58:40.512Z,97691.80
2019-03-12T20:03:14.786Z,97684.92
2019-03-12T20:05:23.094Z,97676.41
2019-03-12T20:07:34.037Z,97687.33
2019-03-12T20:10:26.485Z,97673.98
2019-03-12T20:13:18.979Z,97667.86
2019-03-12T20:16:09.771Z,97661.19
2019-03-12T20:19:02.266Z,97653.21
2019-03-12T20:21:54.766Z,97647.28
2019-03-12T20:24:47.232Z,97642.68
2019-03-12T20:27:37.823Z,97630.08
2019-03-12T20:30:30.308Z,97624.06
2019-03-12T20:33:20.829Z,97621.47
2019-03-12T20:36:11.373Z,97609.65
2019-03-12T20:39:02.290Z,97600.37
2019-03-12T20:41:54.864Z,97596.22
2019-03-12T20:44:45.402Z,97592.84
2019-03-12T20:47:35.991Z,97593.11
2019-03-12T20:50:26.526Z,97583.57
2019-03-12T20:53:19.038Z,97582.43
2019-03-12T20:56:09.675Z,97572.96
2019-03-12T20:59:00.355Z,97563.77
2019-03-12T21:01:52.805Z,97556.98
2019-03-12T21:04:43.376Z,97548.38
2019-03-12T21:07:35.826Z,97541.54
2019-03-12T21:10:28.291Z,97527.98
2019-03-12T21:13:18.874Z,97526.88
2019-03-12T21:16:11.326Z,97522.25
2019-03-12T21:19:01.895Z,97517.56
2019-03-12T21:22:03.185Z,97499.41
2019-03-12T21:24:46.805Z,97491.55
2019-03-12T21:27:39.274Z,97488.69
2019-03-12T21:32:50.625Z,97474.84
2019-03-12T21:35:01.759Z,97459.75
2019-03-12T21:37:54.232Z,97457.84
2019-03-12T21:40:46.705Z,97447.38
2019-03-12T21:42:57.536Z,97442.05
2019-03-12T21:45:50.009Z,97441.16
2019-03-12T21:48:00.940Z,97436.30
2019-03-12T21:50:11.773Z,97439.66
2019-03-12T21:52:22.691Z,97442.45
2019-03-12T21:54:33.650Z,97439.50
2019-03-12T21:56:44.464Z,97426.07
2019-03-12T21:58:55.404Z,97428.73
2019-03-12T22:01:06.292Z,97420.33
2019-03-12T22:03:17.095Z,97413.85
2019-03-12T22:05:27.943Z,97413.23
2019-03-12T22:07:38.733Z,97404.37
2019-03-12T22:09:49.596Z,97402.60
2019-03-12T22:12:00.409Z,97389.77
2019-03-12T22:14:11.248Z,97381.38
2019-03-12T22:16:22.101Z,97379.06
2019-03-12T22:18:32.948Z,97382.95
2019-03-12T22:20:43.773Z,97387.28
2019-03-12T22:23:14.476Z,97379.44
2019-03-12T22:25:25.267Z,97379.96
2019-03-12T22:27:36.099Z,97377.22
2019-03-12T22:29:46.890Z,97378.13
2019-03-12T22:31:57.726Z,97373.77
2019-03-12T22:34:08.514Z,97376.43
2019-03-12T22:36:19.335Z,97372.34
2019-03-12T22:38:30.172Z,97364.64
2019-03-12T22:40:40.995Z,97359.48
2019-03-12T22:42:51.808Z,97354.84
2019-03-12T22:45:44.258Z,97356.64
2019-03-12T22:47:55.068Z,97349.22
2019-03-12T22:50:47.599Z,97346.09
2019-03-12T22:52:58.477Z,97340.55
2019-03-12T22:55:50.909Z,97333.86
2019-03-12T22:58:01.735Z,97332.32
2019-03-12T23:00:54.171Z,97338.50
2019-03-12T23:03:05.108Z,97331.69
2019-03-12T23:05:15.912Z,97328.41
2019-03-12T23:09:49.235Z,97330.72
2019-03-12T23:12:02.539Z,97330.38
2019-03-12T23:14:13.400Z,97338.07
2019-03-12T23:16:24.215Z,97354.47
2019-03-12T23:18:35.082Z,97351.83
2019-03-12T23:20:46.044Z,97363.77
2019-03-12T23:22:56.888Z,97371.89
2019-03-12T23:25:07.720Z,97379.98
2019-03-12T23:27:18.536Z,97387.69
2019-03-12T23:29:29.351Z,97391.84
2019-03-12T23:31:40.153Z,97394.48
2019-03-12T23:33:50.965Z,97390.03
2019-03-12T23:36:01.871Z,97392.63
2019-03-12T23:38:12.681Z,97407.30
2019-03-12T23:40:23.496Z,97398.86
2019-03-12T23:42:34.298Z,97402.75
2019-03-12T23:44:45.112Z,97414.12
2019-03-12T23:46:55.915Z,97412.61
2019-03-12T23:49:06.744Z,97418.88
2019-03-12T23:51:17.566Z,97426.42
2019-03-12T23:53:28.353Z,97434.81
2019-03-12T23:55:39.178Z,97441.56
2019-03-12T23:57:50.107Z,97455.25
